createdAt,value
2017-07-17T00:00:31.473Z,93.80
2017-07-17T00:02:59.066Z,93.80
2017-07-17T00:05:26.635Z,94.40
2017-07-17T00:07:54.237Z,94.50
2017-07-17T00:10:21.822Z,94.30
2017-07-17T00:12:49.393Z,94.40
2017-07-17T00:15:16.986Z,94.00
2017-07-17T00:17:44.582Z,94.30
2017-07-17T00:20:12.183Z,94.50
2017-07-17T00:22:39.745Z,94.60
2017-07-17T00:25:07.329Z,94.50
2017-07-17T00:27:34.975Z,94.60
2017-07-17T00:30:03.329Z,94.80
2017-07-17T00:32:30.915Z,94.70
2017-07-17T00:34:58.514Z,94.60
2017-07-17T00:37:26.083Z,94.50
2017-07-17T00:39:53.690Z,94.60
2017-07-17T00:42:21.251Z,94.70
2017-07-17T00:44:48.911Z,94.60
2017-07-17T00:47:16.491Z,94.60
2017-07-17T00:49:44.075Z,94.50
2017-07-17T00:52:11.645Z,94.50
2017-07-17T00:54:39.203Z,94.30
2017-07-17T00:57:06.798Z,94.70
2017-07-17T00:59:34.394Z,95.10
2017-07-17T01:02:01.956Z,95.10
2017-07-17T01:04:30.302Z,95.30
2017-07-17T01:06:57.888Z,95.30
2017-07-17T01:09:25.466Z,95.00
2017-07-17T01:11:53.064Z,95.00
2017-07-17T01:14:20.657Z,95.00
2017-07-17T01:16:48.240Z,95.40
2017-07-17T01:19:15.822Z,95.60
2017-07-17T01:21:43.402Z,95.70
2017-07-17T01:24:10.977Z,95.60
2017-07-17T01:26:38.574Z,95.50
2017-07-17T01:29:06.915Z,95.90
2017-07-17T01:31:34.514Z,95.90
2017-07-17T01:34:02.118Z,96.20
2017-07-17T01:36:29.677Z,96.00
2017-07-17T01:38:57.260Z,95.50
2017-07-17T01:41:24.814Z,96.00
2017-07-17T01:43:52.407Z,96.10
2017-07-17T01:46:19.991Z,96.10
2017-07-17T01:48:47.553Z,95.90
2017-07-17T01:51:15.898Z,95.40
2017-07-17T01:53:43.467Z,95.40
2017-07-17T01:56:11.046Z,95.40
2017-07-17T01:58:39.514Z,95.40
2017-07-17T02:01:07.094Z,95.30
2017-07-17T02:03:34.666Z,95.40
2017-07-17T02:06:03.023Z,95.00
2017-07-17T02:08:30.606Z,95.00
2017-07-17T02:10:58.185Z,95.30
2017-07-17T02:13:25.758Z,95.10
2017-07-17T02:15:53.321Z,95.00
2017-07-17T02:18:20.908Z,95.00
2017-07-17T02:20:48.468Z,95.40
2017-07-17T02:23:16.057Z,95.80
2017-07-17T02:25:43.646Z,95.20
2017-07-17T02:28:11.232Z,95.20
2017-07-17T02:30:38.849Z,95.50
2017-07-17T02:33:06.416Z,95.50
2017-07-17T02:35:34.007Z,95.70
2017-07-17T02:38:01.580Z,95.70
2017-07-17T02:40:29.142Z,95.60
2017-07-17T02:42:56.733Z,95.70
2017-07-17T02:45:24.346Z,95.60
2017-07-17T02:47:51.942Z,95.50
2017-07-17T02:50:19.519Z,95.20
2017-07-17T02:52:47.859Z,95.40
2017-07-17T02:55:15.453Z,95.00
2017-07-17T02:57:43.024Z,94.90
2017-07-17T03:00:11.410Z,94.90
2017-07-17T03:02:38.988Z,95.30
2017-07-17T03:05:06.596Z,95.40
2017-07-17T03:07:34.173Z,95.30
2017-07-17T03:10:01.778Z,94.90
2017-07-17T03:12:29.363Z,95.10
2017-07-17T03:14:56.922Z,95.00
2017-07-17T03:17:24.501Z,95.10
2017-07-17T03:19:52.090Z,95.10
2017-07-17T03:22:20.449Z,94.90
2017-07-17T03:24:48.049Z,94.80
2017-07-17T03:27:16.782Z,94.70
2017-07-17T03:29:44.551Z,94.60
2017-07-17T03:32:12.151Z,94.90
2017-07-17T03:34:39.714Z,94.90
2017-07-17T03:37:07.295Z,95.10
2017-07-17T03:39:34.856Z,95.40
2017-07-17T03:42:02.455Z,95.70
2017-07-17T03:44:30.015Z,95.90
2017-07-17T03:46:57.588Z,95.90
2017-07-17T03:49:25.162Z,96.40
2017-07-17T03:51:52.736Z,96.30
2017-07-17T03:54:21.095Z,96.60
2017-07-17T03:56:48.660Z,96.80
2017-07-17T03:59:16.248Z,96.80
2017-07-17T04:01:43.826Z,97.00
2017-07-17T04:04:11.395Z,97.40
2017-07-17T04:06:39.002Z,97.40
2017-07-17T04:09:06.621Z,97.60
2017-07-17T04:11:34.199Z,97.90
2017-07-17T04:14:01.798Z,98.10
2017-07-17T04:16:29.358Z,98.30
2017-07-17T04:18:56.943Z,98.40
2017-07-17T04:21:24.528Z,98.80
2017-07-17T04:23:52.126Z,98.70
2017-07-17T04:26:19.774Z,98.90
2017-07-17T04:28:47.379Z,98.70
2017-07-17T04:31:15.736Z,99.20
2017-07-17T04:33:43.318Z,99.10
2017-07-17T04:36:10.882Z,99.10
2017-07-17T04:38:39.255Z,99.60
2017-07-17T04:41:07.578Z,99.90
2017-07-17T04:43:35.159Z,99.40
2017-07-17T04:46:02.746Z,99.20
2017-07-17T04:48:30.314Z,99.30
2017-07-17T04:50:57.870Z,99.20
2017-07-17T04:53:25.447Z,99.50
2017-07-17T04:55:53.138Z,99.50
2017-07-17T04:58:20.703Z,99.50
2017-07-17T05:00:48.298Z,99.20
2017-07-17T05:03:15.866Z,98.80
2017-07-17T05:05:43.523Z,99.00
2017-07-17T05:08:11.071Z,99.20
2017-07-17T05:10:38.634Z,99.20
2017-07-17T05:13:06.269Z,99.50
2017-07-17T05:15:33.821Z,99.60
2017-07-17T05:18:01.467Z,99.20
2017-07-17T05:20:29.058Z,99.20
2017-07-17T05:22:56.661Z,99.00
2017-07-17T05:25:24.226Z,98.90
2017-07-17T05:27:51.798Z,99.50
2017-07-17T05:30:19.375Z,99.50
2017-07-17T05:32:47.015Z,99.90
2017-07-17T05:35:15.345Z,99.40
2017-07-17T05:37:44.582Z,99.10
2017-07-17T05:40:12.154Z,98.80
2017-07-17T05:42:39.743Z,98.70
2017-07-17T05:45:07.409Z,98.80
2017-07-17T05:47:34.963Z,99.10
2017-07-17T05:50:02.542Z,98.80
2017-07-17T05:52:30.118Z,98.70
2017-07-17T05:54:57.699Z,98.60
2017-07-17T05:57:25.302Z,98.40
2017-07-17T05:59:54.587Z,98.90
2017-07-17T06:02:22.238Z,98.50
2017-07-17T06:04:49.878Z,98.30
2017-07-17T06:07:17.488Z,98.70
2017-07-17T06:09:45.082Z,98.80
2017-07-17T06:12:12.666Z,99.10
2017-07-17T06:14:40.223Z,98.90
2017-07-17T06:17:07.815Z,99.30
2017-07-17T06:19:38.837Z,99.10
2017-07-17T06:22:06.453Z,99.10
2017-07-17T06:24:34.005Z,98.80
2017-07-17T06:27:02.007Z,98.60
2017-07-17T06:29:29.653Z,97.90
2017-07-17T06:31:57.240Z,97.40
2017-07-17T06:34:24.814Z,97.90
2017-07-17T06:36:52.430Z,98.00
2017-07-17T06:39:20.023Z,98.80
2017-07-17T06:41:47.609Z,99.20
2017-07-17T06:44:16.383Z,98.80
2017-07-17T06:46:44.066Z,99.00
2017-07-17T06:49:11.658Z,99.20
2017-07-17T06:51:39.249Z,98.50
2017-07-17T06:54:06.834Z,98.50
2017-07-17T06:56:34.421Z,99.10
2017-07-17T06:59:02.035Z,98.50
2017-07-17T07:01:29.623Z,97.50
2017-07-17T07:03:57.195Z,97.20
2017-07-17T07:06:24.791Z,97.10
2017-07-17T07:08:52.363Z,96.10
2017-07-17T07:11:19.926Z,96.70
2017-07-17T07:13:47.566Z,96.40
2017-07-17T07:16:15.147Z,97.70
2017-07-17T07:18:42.707Z,97.10
2017-07-17T07:21:10.300Z,96.90
2017-07-17T07:23:39.490Z,95.40
2017-07-17T07:26:07.059Z,95.90
2017-07-17T07:28:34.647Z,96.00
2017-07-17T07:31:02.239Z,96.60
2017-07-17T07:33:30.084Z,96.80
2017-07-17T07:35:58.444Z,96.00
2017-07-17T07:38:26.048Z,96.00
2017-07-17T07:40:53.607Z,96.10
2017-07-17T07:43:21.193Z,96.60
2017-07-17T07:45:48.876Z,95.90
2017-07-17T07:48:16.458Z,96.40
2017-07-17T07:50:44.087Z,96.80
2017-07-17T07:53:11.654Z,96.60
2017-07-17T07:55:39.236Z,96.70
2017-07-17T07:58:06.821Z,96.50
2017-07-17T08:00:34.410Z,96.60
2017-07-17T08:03:02.052Z,96.90
2017-07-17T08:05:29.610Z,97.00
2017-07-17T08:07:57.399Z,96.30
2017-07-17T08:10:24.979Z,95.50
2017-07-17T08:12:52.567Z,94.90
2017-07-17T08:15:20.124Z,93.40
2017-07-17T08:17:47.702Z,94.50
2017-07-17T08:20:15.278Z,95.00
2017-07-17T08:22:42.854Z,94.20
2017-07-17T08:25:10.442Z,94.40
2017-07-17T08:27:38.030Z,94.10
2017-07-17T08:30:05.649Z,93.50
2017-07-17T08:32:33.256Z,92.50
2017-07-17T08:35:00.819Z,92.80
2017-07-17T08:37:28.402Z,92.40
2017-07-17T08:39:55.993Z,91.80
2017-07-17T08:42:23.559Z,91.40
2017-07-17T08:44:51.160Z,90.80
2017-07-17T08:47:18.764Z,90.90
2017-07-17T08:49:46.373Z,90.40
2017-07-17T08:52:13.944Z,91.10
2017-07-17T08:54:41.495Z,90.80
2017-07-17T08:57:09.093Z,87.70
2017-07-17T08:59:37.442Z,90.00
2017-07-17T09:02:05.074Z,90.00
2017-07-17T09:04:32.648Z,91.00
2017-07-17T09:07:00.239Z,88.30
2017-07-17T09:09:27.828Z,89.90
2017-07-17T09:11:56.157Z,84.90
2017-07-17T09:14:23.794Z,84.80
2017-07-17T09:16:51.523Z,83.10
2017-07-17T09:19:19.086Z,84.10
2017-07-17T09:21:47.442Z,85.10
2017-07-17T09:24:15.010Z,85.00
2017-07-17T09:26:42.620Z,82.90
2017-07-17T09:29:10.207Z,83.70
2017-07-17T09:31:37.807Z,80.50
2017-07-17T09:34:05.391Z,83.10
2017-07-17T09:36:32.954Z,79.80
2017-07-17T09:39:00.530Z,77.50
2017-07-17T09:41:28.105Z,74.00
2017-07-17T09:43:55.697Z,69.50
2017-07-17T09:46:23.270Z,70.10
2017-07-17T09:48:51.644Z,58.10
2017-07-17T09:51:19.198Z,57.90
2017-07-17T09:53:46.750Z,59.70
2017-07-17T09:56:14.367Z,56.10
2017-07-17T09:58:41.930Z,54.60
2017-07-17T10:01:09.504Z,56.90
2017-07-17T10:03:37.080Z,56.10
2017-07-17T10:06:04.667Z,59.40
2017-07-17T10:08:32.264Z,58.40
2017-07-17T10:10:59.823Z,60.20
2017-07-17T10:13:28.032Z,60.10
2017-07-17T10:15:55.630Z,63.00
2017-07-17T10:18:23.974Z,56.90
2017-07-17T10:20:51.612Z,56.90
2017-07-17T10:23:19.189Z,57.70
2017-07-17T10:25:46.781Z,61.50
2017-07-17T10:28:14.363Z,59.20
2017-07-17T10:30:43.445Z,58.40
2017-07-17T10:33:11.018Z,58.40
2017-07-17T10:35:39.380Z,54.00
2017-07-17T10:38:06.969Z,53.90
2017-07-17T10:40:34.535Z,53.50
2017-07-17T10:43:02.138Z,48.80
2017-07-17T10:45:29.713Z,47.60
2017-07-17T10:47:57.475Z,43.90
2017-07-17T10:50:25.063Z,46.10
2017-07-17T10:52:53.768Z,45.40
2017-07-17T10:55:22.092Z,46.00
2017-07-17T10:57:49.648Z,46.00
2017-07-17T11:00:17.306Z,47.70
2017-07-17T11:02:44.875Z,47.10
2017-07-17T11:05:12.457Z,48.20
2017-07-17T11:07:40.024Z,46.20
2017-07-17T11:10:07.586Z,43.30
2017-07-17T11:12:35.256Z,43.00
2017-07-17T11:15:02.825Z,46.40
2017-07-17T11:17:31.172Z,43.40
2017-07-17T11:19:58.786Z,43.30
2017-07-17T11:22:26.361Z,44.70
2017-07-17T11:24:54.023Z,44.90
2017-07-17T11:27:21.576Z,45.00
2017-07-17T11:29:49.155Z,42.90
2017-07-17T11:32:16.730Z,41.10
2017-07-17T11:34:44.287Z,41.40
2017-07-17T11:37:11.872Z,42.80
2017-07-17T11:39:39.433Z,39.70
2017-07-17T11:42:07.031Z,42.40
2017-07-17T11:44:35.372Z,43.60
2017-07-17T11:57:15.399Z,45.40
2017-07-17T11:59:42.953Z,45.50
2017-07-17T12:02:10.557Z,47.80
2017-07-17T12:04:38.149Z,43.10
2017-07-17T12:07:05.718Z,44.20
2017-07-17T12:09:33.307Z,48.00
2017-07-17T12:12:00.859Z,47.50
2017-07-17T12:14:28.413Z,42.30
2017-07-17T12:16:55.995Z,44.90
2017-07-17T12:19:23.561Z,44.10
2017-07-17T12:21:51.901Z,42.50
2017-07-17T12:24:19.486Z,42.50
2017-07-17T12:26:47.043Z,46.90
2017-07-17T12:29:14.638Z,45.30
2017-07-17T12:31:42.976Z,44.90
2017-07-17T12:34:10.532Z,44.90
2017-07-17T12:36:38.123Z,45.50
2017-07-17T12:39:06.462Z,44.90
2017-07-17T12:41:34.030Z,44.10
2017-07-17T12:44:01.634Z,44.60
2017-07-17T12:46:29.969Z,42.70
2017-07-17T12:48:57.510Z,43.20
2017-07-17T12:51:25.098Z,42.30
2017-07-17T12:53:52.681Z,44.60
2017-07-17T12:56:21.012Z,45.00
2017-07-17T12:58:48.563Z,44.90
2017-07-17T13:01:16.844Z,46.30
2017-07-17T13:03:44.425Z,44.10
2017-07-17T13:06:12.051Z,44.70
2017-07-17T13:08:39.656Z,45.20
2017-07-17T13:11:07.217Z,48.40
2017-07-17T13:13:34.782Z,45.60
2017-07-17T13:16:02.384Z,46.20
2017-07-17T13:18:30.725Z,45.80
2017-07-17T13:20:58.278Z,45.80
2017-07-17T13:23:25.871Z,47.70
2017-07-17T13:25:54.314Z,43.00
2017-07-17T13:28:21.880Z,42.90
2017-07-17T13:30:49.451Z,46.30
2017-07-17T13:33:17.083Z,44.20
2017-07-17T13:35:44.672Z,46.20
2017-07-17T13:38:12.230Z,44.50
2017-07-17T13:40:39.802Z,46.90
2017-07-17T13:43:07.414Z,42.50
2017-07-17T13:45:35.058Z,44.70
2017-07-17T13:48:02.654Z,44.10
2017-07-17T13:50:30.242Z,43.70
2017-07-17T13:55:25.345Z,44.30
2017-07-17T13:57:52.933Z,44.10
2017-07-17T14:00:20.535Z,46.30
2017-07-17T14:02:48.087Z,41.90
2017-07-17T14:05:16.451Z,44.10
2017-07-17T14:07:45.087Z,44.30
2017-07-17T14:10:12.721Z,44.20
2017-07-17T14:12:40.274Z,44.20
2017-07-17T14:15:07.890Z,44.80
2017-07-17T14:17:35.473Z,46.90
2017-07-17T14:20:03.054Z,43.50
2017-07-17T14:22:31.361Z,46.90
2017-07-17T14:24:58.942Z,46.90
2017-07-17T14:27:26.529Z,46.60
2017-07-17T14:29:54.128Z,44.00
2017-07-17T14:32:21.711Z,44.60
2017-07-17T14:34:49.281Z,44.60
2017-07-17T14:37:16.894Z,45.80
2017-07-17T14:39:45.271Z,47.90
2017-07-17T14:42:13.590Z,44.50
2017-07-17T14:44:41.308Z,44.40
2017-07-17T14:47:09.636Z,44.80
2017-07-17T14:49:38.118Z,44.30
2017-07-17T14:52:05.735Z,46.10
2017-07-17T14:54:34.067Z,46.90
2017-07-17T14:57:01.610Z,46.90
2017-07-17T15:02:03.226Z,48.00
2017-07-17T15:04:30.840Z,48.60
2017-07-17T15:06:58.406Z,50.10
2017-07-17T15:09:25.987Z,46.40
2017-07-17T15:11:53.660Z,47.90
2017-07-17T15:14:22.059Z,46.20
2017-07-17T15:16:49.629Z,46.10
2017-07-17T15:19:17.959Z,46.20
2017-07-17T15:21:45.523Z,45.60
2017-07-17T15:24:13.203Z,46.20
2017-07-17T15:26:40.750Z,47.20
2017-07-17T15:29:08.369Z,46.10
2017-07-17T15:31:36.701Z,45.40
2017-07-17T15:34:04.279Z,45.30
2017-07-17T15:36:32.228Z,47.70
2017-07-17T15:38:59.782Z,48.70
2017-07-17T15:41:27.353Z,45.10
2017-07-17T15:43:54.933Z,45.60
2017-07-17T15:46:22.522Z,46.80
2017-07-17T15:48:50.880Z,46.90
2017-07-17T15:51:18.444Z,46.90
2017-07-17T15:53:46.029Z,45.90
2017-07-17T15:56:13.665Z,46.20
2017-07-17T15:58:41.257Z,46.10
2017-07-17T16:01:08.817Z,45.50
2017-07-17T16:03:36.341Z,45.10
2017-07-17T16:06:03.941Z,44.30
2017-07-17T16:08:31.586Z,45.20
2017-07-17T16:10:59.684Z,45.50
2017-07-17T16:13:27.333Z,45.70
2017-07-17T16:15:54.925Z,45.30
2017-07-17T16:18:22.498Z,44.50
2017-07-17T16:20:50.058Z,45.70
2017-07-17T16:23:17.650Z,46.00
2017-07-17T16:25:45.987Z,44.80
2017-07-17T16:28:13.589Z,44.80
2017-07-17T16:30:41.198Z,45.40
2017-07-17T16:33:08.761Z,45.70
2017-07-17T16:35:36.374Z,45.20
2017-07-17T16:38:03.963Z,45.10
2017-07-17T16:40:31.533Z,44.60
2017-07-17T16:42:59.124Z,44.80
2017-07-17T16:45:26.701Z,45.20
2017-07-17T16:47:54.278Z,44.30
2017-07-17T16:50:21.869Z,44.40
2017-07-17T16:52:50.197Z,43.40
2017-07-17T16:55:17.916Z,43.30
2017-07-17T16:57:45.482Z,43.60
2017-07-17T17:00:13.871Z,44.70
2017-07-17T17:02:41.445Z,45.00
2017-07-17T17:05:09.050Z,44.80
2017-07-17T17:07:36.630Z,46.20
2017-07-17T17:10:04.225Z,46.70
2017-07-17T17:12:31.803Z,46.50
2017-07-17T17:14:59.380Z,44.80
2017-07-17T17:17:27.059Z,45.40
2017-07-17T17:19:54.637Z,45.00
2017-07-17T17:22:22.236Z,44.40
2017-07-17T17:24:50.541Z,44.90
2017-07-17T17:27:18.138Z,45.00
2017-07-17T17:29:45.703Z,45.80
2017-07-17T17:32:13.309Z,45.70
2017-07-17T17:34:40.890Z,45.00
2017-07-17T17:37:09.251Z,44.90
2017-07-17T17:39:36.832Z,44.80
2017-07-17T17:42:04.410Z,44.60
2017-07-17T17:44:32.799Z,45.60
2017-07-17T17:47:01.191Z,46.90
2017-07-17T17:49:28.750Z,46.70
2017-07-17T17:51:56.318Z,45.00
2017-07-17T17:54:23.866Z,45.80
2017-07-17T17:56:51.467Z,46.90
2017-07-17T17:59:19.014Z,47.80
2017-07-17T18:01:46.642Z,47.80
2017-07-17T18:04:15.041Z,47.00
2017-07-17T18:06:42.634Z,46.90
2017-07-17T18:09:10.226Z,48.50
2017-07-17T18:11:37.814Z,47.50
2017-07-17T18:14:06.154Z,48.00
2017-07-17T18:16:33.762Z,48.00
2017-07-17T18:19:01.686Z,48.30
2017-07-17T18:21:29.295Z,46.90
2017-07-17T18:23:56.845Z,49.10
2017-07-17T18:26:24.439Z,49.20
2017-07-17T18:28:51.966Z,49.30
2017-07-17T18:31:19.538Z,48.90
2017-07-17T18:33:47.113Z,49.60
2017-07-17T18:36:14.679Z,50.50
2017-07-17T18:38:42.361Z,49.40
2017-07-17T18:41:09.921Z,49.90
2017-07-17T18:43:37.507Z,49.90
2017-07-17T18:46:05.095Z,49.30
2017-07-17T18:48:32.661Z,49.30
2017-07-17T18:51:00.295Z,50.40
2017-07-17T18:53:27.838Z,50.20
2017-07-17T18:55:55.506Z,51.60
2017-07-17T18:58:23.129Z,52.90
2017-07-17T19:00:51.105Z,52.70
2017-07-17T19:03:18.698Z,53.40
2017-07-17T19:05:46.279Z,53.30
2017-07-17T19:08:13.861Z,53.90
2017-07-17T19:10:41.432Z,54.70
2017-07-17T19:13:09.008Z,54.70
2017-07-17T19:15:36.573Z,56.50
2017-07-17T19:18:04.179Z,55.70
2017-07-17T19:20:31.740Z,55.80
2017-07-17T19:22:59.405Z,56.20
2017-07-17T19:25:27.766Z,57.20
2017-07-17T19:27:55.343Z,57.20
2017-07-17T19:30:22.980Z,57.40
2017-07-17T19:32:50.545Z,57.80
2017-07-17T19:35:18.124Z,58.00
2017-07-17T19:37:45.709Z,57.50
2017-07-17T19:40:14.066Z,58.10
2017-07-17T19:42:41.635Z,58.10
2017-07-17T19:45:09.218Z,58.70
2017-07-17T19:47:36.855Z,59.40
2017-07-17T19:50:05.203Z,60.20
2017-07-17T19:52:32.791Z,60.20
2017-07-17T19:55:00.362Z,59.50
2017-07-17T19:57:28.710Z,63.40
2017-07-17T19:59:56.278Z,62.80
2017-07-17T20:02:23.832Z,62.80
2017-07-17T20:04:51.423Z,63.70
2017-07-17T20:07:19.002Z,62.20
2017-07-17T20:09:46.557Z,63.20
2017-07-17T20:12:14.179Z,65.20
2017-07-17T20:14:41.783Z,66.40
2017-07-17T20:17:10.119Z,68.20
2017-07-17T20:19:37.690Z,69.10
2017-07-17T20:22:05.279Z,69.10
2017-07-17T20:24:32.868Z,70.60
2017-07-17T20:27:00.461Z,72.70
2017-07-17T20:29:28.033Z,74.90
2017-07-17T20:31:55.650Z,73.70
2017-07-17T20:34:23.253Z,73.40
2017-07-17T20:36:50.808Z,74.20
2017-07-17T20:39:18.393Z,74.80
2017-07-17T20:41:46.745Z,75.80
2017-07-17T20:44:14.304Z,75.70
2017-07-17T20:46:41.874Z,76.90
2017-07-17T20:49:09.433Z,77.30
2017-07-17T20:51:37.034Z,78.20
2017-07-17T20:54:04.607Z,78.90
2017-07-17T20:56:32.193Z,79.90
2017-07-17T20:58:59.786Z,78.60
2017-07-17T21:01:28.155Z,80.90
2017-07-17T21:03:55.753Z,80.80
2017-07-17T21:06:23.335Z,81.90
2017-07-17T21:08:50.929Z,81.40
2017-07-17T21:11:18.519Z,82.20
2017-07-17T21:13:46.089Z,81.80
2017-07-17T21:16:14.419Z,82.50
2017-07-17T21:18:41.992Z,82.40
2017-07-17T21:21:09.594Z,82.20
2017-07-17T21:23:37.915Z,83.40
2017-07-17T21:26:05.563Z,83.30
2017-07-17T21:28:33.144Z,83.40
2017-07-17T21:31:00.717Z,84.00
2017-07-17T21:33:28.295Z,85.50
2017-07-17T21:35:55.862Z,85.00
2017-07-17T21:38:23.453Z,86.00
2017-07-17T21:40:51.037Z,86.10
2017-07-17T21:43:18.615Z,86.40
2017-07-17T21:45:46.194Z,86.20
2017-07-17T21:48:13.772Z,85.50
2017-07-17T21:50:42.090Z,86.80
2017-07-17T21:53:09.650Z,86.50
2017-07-17T21:55:37.283Z,87.00
2017-07-17T21:58:05.622Z,87.60
2017-07-17T22:00:33.211Z,87.40
2017-07-17T22:03:00.768Z,88.10
2017-07-17T22:05:28.371Z,87.90
2017-07-17T22:07:55.933Z,88.30
2017-07-17T22:10:23.591Z,87.40
2017-07-17T22:12:51.185Z,87.60
2017-07-17T22:15:18.761Z,88.50
2017-07-17T22:17:46.322Z,89.00
2017-07-17T22:20:13.935Z,89.70
2017-07-17T22:22:41.534Z,89.90
2017-07-17T22:25:09.078Z,90.00
2017-07-17T22:27:36.654Z,90.00
2017-07-17T22:30:04.272Z,89.60
2017-07-17T22:32:31.856Z,90.00
2017-07-17T22:34:59.428Z,90.10
2017-07-17T22:37:27.014Z,90.20
2017-07-17T22:39:54.569Z,90.20
2017-07-17T22:42:22.140Z,90.20
2017-07-17T22:44:49.730Z,90.40
2017-07-17T22:47:17.326Z,90.30
2017-07-17T22:49:44.898Z,90.40
2017-07-17T22:52:12.505Z,90.40
2017-07-17T22:54:40.843Z,90.30
2017-07-17T22:57:08.397Z,90.20
2017-07-17T22:59:35.978Z,90.50
2017-07-17T23:02:03.563Z,90.40
2017-07-17T23:04:31.151Z,90.60
2017-07-17T23:06:58.714Z,91.00
2017-07-17T23:09:26.266Z,91.10
2017-07-17T23:11:53.831Z,90.90
2017-07-17T23:14:22.265Z,91.00
2017-07-17T23:16:49.858Z,91.30
2017-07-17T23:19:17.433Z,91.20
2017-07-17T23:21:45.004Z,91.10
2017-07-17T23:24:12.582Z,91.50
2017-07-17T23:26:40.146Z,91.50
2017-07-17T23:29:07.719Z,91.40
2017-07-17T23:31:35.294Z,91.40
2017-07-17T23:34:02.880Z,91.40
2017-07-17T23:36:31.230Z,91.50
2017-07-17T23:38:58.781Z,91.40
2017-07-17T23:41:26.344Z,91.70
2017-07-17T23:43:53.942Z,91.80
2017-07-17T23:46:22.274Z,91.80
2017-07-17T23:48:49.842Z,91.70
2017-07-17T23:51:17.499Z,91.70
2017-07-17T23:53:45.082Z,91.70
2017-07-17T23:56:12.652Z,91.80
2017-07-17T23:58:40.213Z,92.20
